createdAt,value
2022-10-17T00:00:35.940Z,2.90
2022-10-17T00:03:04.568Z,2.80
2022-10-17T00:05:34.360Z,2.87
2022-10-17T00:08:02.812Z,3.20
2022-10-17T00:10:31.298Z,3.03
2022-10-17T00:12:59.768Z,3.27
2022-10-17T00:15:28.243Z,3.23
2022-10-17T00:17:56.896Z,2.90
2022-10-17T00:20:25.328Z,3.03
2022-10-17T00:22:55.332Z,3.10
2022-10-17T00:25:23.828Z,2.87
2022-10-17T00:27:52.307Z,2.60
2022-10-17T00:30:20.763Z,2.80
2022-10-17T00:32:49.242Z,2.80
2022-10-17T00:35:17.689Z,3.50
2022-10-17T00:37:46.167Z,3.30
2022-10-17T00:40:16.057Z,3.00
2022-10-17T00:42:44.547Z,3.03
2022-10-17T00:45:18.426Z,2.90
2022-10-17T00:47:49.427Z,2.87
2022-10-17T00:50:18.464Z,3.33
2022-10-17T00:52:47.788Z,3.27
2022-10-17T00:55:19.407Z,3.40
2022-10-17T00:57:48.035Z,3.50
2022-10-17T01:00:17.091Z,3.70
2022-10-17T01:02:45.711Z,3.13
2022-10-17T01:05:14.476Z,3.80
2022-10-17T01:07:43.843Z,3.67
2022-10-17T01:10:12.870Z,3.60
2022-10-17T01:12:54.154Z,3.40
2022-10-17T01:15:27.594Z,3.10
2022-10-17T01:18:01.164Z,3.63
2022-10-17T01:20:59.959Z,4.20
2022-10-17T01:23:38.653Z,4.13
2022-10-17T01:26:09.655Z,3.80
2022-10-17T01:28:49.420Z,3.77
2022-10-17T01:31:22.387Z,3.30
2022-10-17T01:33:55.779Z,3.67
2022-10-17T01:36:32.707Z,3.40
2022-10-17T01:39:04.442Z,3.90
2022-10-17T01:41:37.429Z,4.00
2022-10-17T01:44:07.204Z,3.70
2022-10-17T01:46:39.058Z,3.33
2022-10-17T01:49:08.758Z,3.07
2022-10-17T01:51:39.748Z,3.67
2022-10-17T01:54:11.711Z,3.53
2022-10-17T01:56:40.739Z,3.43
2022-10-17T01:59:12.836Z,3.60
2022-10-17T02:01:43.587Z,3.70
2022-10-17T02:04:13.165Z,3.67
2022-10-17T02:06:41.625Z,3.90
2022-10-17T02:09:20.027Z,3.57
2022-10-17T02:11:52.479Z,3.80
2022-10-17T02:14:27.867Z,3.43
2022-10-17T02:17:06.635Z,3.40
2022-10-17T02:19:45.624Z,3.70
2022-10-17T02:22:18.356Z,4.07
2022-10-17T02:24:50.420Z,4.10
2022-10-17T02:27:22.791Z,4.20
2022-10-17T02:29:52.312Z,3.87
2022-10-17T02:32:26.629Z,3.33
2022-10-17T02:34:56.466Z,3.20
2022-10-17T02:37:27.534Z,3.53
2022-10-17T02:39:56.590Z,3.40
2022-10-17T02:42:25.546Z,3.23
2022-10-17T02:44:54.804Z,3.00
2022-10-17T02:47:27.353Z,3.03
2022-10-17T02:49:58.523Z,2.80
2022-10-17T02:52:30.640Z,3.50
2022-10-17T02:55:01.056Z,3.60
2022-10-17T02:57:31.054Z,2.80
2022-10-17T03:00:00.591Z,3.50
2022-10-17T03:02:30.606Z,3.37
2022-10-17T03:04:59.306Z,3.40
2022-10-17T03:07:27.775Z,4.20
2022-10-17T03:09:56.212Z,4.20
2022-10-17T03:12:24.698Z,4.43
2022-10-17T03:14:53.112Z,5.00
2022-10-17T03:17:21.580Z,6.53
2022-10-17T03:19:51.393Z,6.77
2022-10-17T03:22:19.892Z,6.57
2022-10-17T03:24:48.335Z,8.00
2022-10-17T03:27:16.851Z,7.77
2022-10-17T03:29:45.280Z,8.13
2022-10-17T03:32:13.764Z,8.10
2022-10-17T03:34:42.202Z,8.20
2022-10-17T03:37:12.036Z,8.43
2022-10-17T03:39:40.476Z,8.27
2022-10-17T03:42:08.984Z,7.87
2022-10-17T03:44:37.408Z,8.23
2022-10-17T03:47:08.165Z,7.77
2022-10-17T03:49:39.012Z,7.63
2022-10-17T03:52:07.492Z,7.50
2022-10-17T03:54:37.352Z,8.07
2022-10-17T03:57:06.006Z,8.50
2022-10-17T03:59:34.617Z,7.77
2022-10-17T04:02:03.073Z,7.90
2022-10-17T04:04:31.517Z,7.33
2022-10-17T04:06:59.997Z,7.77
2022-10-17T04:09:28.492Z,7.50
2022-10-17T04:11:58.349Z,7.83
2022-10-17T04:14:26.782Z,8.03
2022-10-17T04:16:55.331Z,7.27
2022-10-17T04:19:23.747Z,8.10
2022-10-17T04:21:52.222Z,8.20
2022-10-17T04:24:20.710Z,7.97
2022-10-17T04:26:52.141Z,7.57
2022-10-17T04:29:21.944Z,7.33
2022-10-17T04:31:52.382Z,7.40
2022-10-17T04:34:20.808Z,7.13
2022-10-17T04:36:49.306Z,6.47
2022-10-17T04:39:17.708Z,7.77
2022-10-17T04:41:46.469Z,7.07
2022-10-17T04:44:16.164Z,6.47
2022-10-17T04:46:46.024Z,6.70
2022-10-17T04:49:14.553Z,6.70
2022-10-17T04:51:43.152Z,6.27
2022-10-17T04:54:11.596Z,6.17
2022-10-17T04:56:40.102Z,6.10
2022-10-17T04:59:08.542Z,5.83
2022-10-17T05:01:37.137Z,5.90
2022-10-17T05:04:07.114Z,5.20
2022-10-17T05:06:37.795Z,6.00
2022-10-17T05:09:06.215Z,5.20
2022-10-17T05:11:34.963Z,5.33
2022-10-17T05:14:03.970Z,5.50
2022-10-17T05:16:32.438Z,5.40
2022-10-17T05:19:01.285Z,5.00
2022-10-17T05:24:07.516Z,5.23
2022-10-17T05:26:35.976Z,5.00
2022-10-17T05:29:05.494Z,4.80
2022-10-17T05:31:34.535Z,4.57
2022-10-17T05:34:03.392Z,4.43
2022-10-17T05:36:33.224Z,4.70
2022-10-17T05:39:01.701Z,4.60
2022-10-17T05:41:30.155Z,4.30
2022-10-17T05:44:01.767Z,4.33
2022-10-17T05:46:33.192Z,4.30
2022-10-17T05:49:01.680Z,4.40
2022-10-17T05:51:30.166Z,4.50
2022-10-17T05:54:00.091Z,4.27
2022-10-17T05:56:28.575Z,4.73
2022-10-17T05:59:00.728Z,4.43
2022-10-17T06:01:29.603Z,5.07
2022-10-17T06:03:58.195Z,4.73
2022-10-17T06:06:26.655Z,4.60
2022-10-17T06:08:55.153Z,4.37
2022-10-17T06:11:25.213Z,4.30
2022-10-17T06:13:54.133Z,4.20
2022-10-17T06:16:22.581Z,4.50
2022-10-17T06:18:51.049Z,4.23
2022-10-17T06:21:21.127Z,3.77
2022-10-17T06:23:50.116Z,4.30
2022-10-17T06:26:18.898Z,4.20
2022-10-17T06:28:48.848Z,4.13
2022-10-17T06:31:18.369Z,4.00
2022-10-17T06:33:46.828Z,4.23
2022-10-17T06:36:15.925Z,4.47
2022-10-17T06:38:44.415Z,4.30
2022-10-17T06:41:14.705Z,4.40
2022-10-17T06:43:46.260Z,4.10
2022-10-17T06:46:16.893Z,4.03
2022-10-17T06:48:45.624Z,3.73
2022-10-17T06:51:14.410Z,3.90
2022-10-17T06:53:43.075Z,3.90
2022-10-17T06:56:11.974Z,4.03
2022-10-17T06:58:40.980Z,3.90
2022-10-17T07:01:10.629Z,3.72
2022-10-17T07:03:41.013Z,4.00
2022-10-17T07:06:11.017Z,4.00
2022-10-17T07:08:39.516Z,3.37
2022-10-17T07:11:11.616Z,3.72
2022-10-17T07:13:40.171Z,3.50
2022-10-17T07:16:09.020Z,3.40
2022-10-17T07:18:37.488Z,3.70
2022-10-17T07:21:08.616Z,3.42
2022-10-17T07:23:37.679Z,3.40
2022-10-17T07:26:07.974Z,3.53
2022-10-17T07:28:36.593Z,3.92
2022-10-17T07:31:05.999Z,3.42
2022-10-17T07:33:34.537Z,3.55
2022-10-17T07:36:03.003Z,3.55
2022-10-17T07:38:33.079Z,3.70
2022-10-17T07:41:02.659Z,3.60
2022-10-17T07:43:31.192Z,3.40
2022-10-17T07:45:59.933Z,3.20
2022-10-17T07:48:28.394Z,3.42
2022-10-17T07:50:56.828Z,3.42
2022-10-17T07:53:25.309Z,3.00
2022-10-17T07:55:55.074Z,3.40
2022-10-17T07:58:23.595Z,3.38
2022-10-17T08:00:52.379Z,3.28
2022-10-17T08:03:20.886Z,3.05
2022-10-17T08:05:49.346Z,2.97
2022-10-17T08:08:17.867Z,3.15
2022-10-17T08:10:46.330Z,3.35
2022-10-17T08:13:16.191Z,3.20
2022-10-17T08:15:44.600Z,3.03
2022-10-17T08:18:13.898Z,3.30
2022-10-17T08:20:42.306Z,3.25
2022-10-17T08:23:10.772Z,3.17
2022-10-17T08:25:40.447Z,3.17
2022-10-17T08:28:09.206Z,3.33
2022-10-17T08:30:39.038Z,3.60
2022-10-17T08:33:07.507Z,2.95
2022-10-17T08:35:35.975Z,3.17
2022-10-17T08:38:04.497Z,3.25
2022-10-17T08:40:35.465Z,3.00
2022-10-17T08:43:21.999Z,3.17
2022-10-17T08:45:53.886Z,3.10
2022-10-17T08:48:23.399Z,3.20
2022-10-17T08:50:54.078Z,3.30
2022-10-17T08:53:25.038Z,3.15
2022-10-17T08:55:54.216Z,3.17
2022-10-17T08:58:24.151Z,3.05
2022-10-17T09:00:59.269Z,3.42
2022-10-17T09:03:38.811Z,3.28
2022-10-17T09:06:14.692Z,3.38
2022-10-17T09:08:48.685Z,3.25
2022-10-17T09:11:22.328Z,2.70
2022-10-17T09:13:57.693Z,3.20
2022-10-17T09:16:33.334Z,3.30
2022-10-17T09:19:03.897Z,3.13
2022-10-17T09:21:37.283Z,3.53
2022-10-17T09:24:15.856Z,3.10
2022-10-17T09:26:46.370Z,2.65
2022-10-17T09:29:18.315Z,3.05
2022-10-17T09:31:49.924Z,3.13
2022-10-17T09:34:18.700Z,3.50
2022-10-17T09:36:47.136Z,3.13
2022-10-17T09:39:16.539Z,2.97
2022-10-17T09:41:47.196Z,3.10
2022-10-17T09:44:17.298Z,3.55
2022-10-17T09:46:49.224Z,3.05
2022-10-17T09:49:20.471Z,3.03
2022-10-17T09:51:49.964Z,3.10
2022-10-17T09:54:22.623Z,2.92
2022-10-17T09:57:01.636Z,2.90
2022-10-17T09:59:33.956Z,3.05
2022-10-17T10:02:16.670Z,3.08
2022-10-17T10:05:10.558Z,3.17
2022-10-17T10:07:39.664Z,2.85
2022-10-17T10:10:09.292Z,2.97
2022-10-17T10:12:39.230Z,2.90
2022-10-17T10:15:22.548Z,3.03
2022-10-17T10:17:51.130Z,2.70
2022-10-17T10:20:34.434Z,3.10
2022-10-17T10:23:18.434Z,2.70
2022-10-17T10:25:57.793Z,2.90
2022-10-17T10:28:30.380Z,2.97
2022-10-17T10:30:59.902Z,2.90
2022-10-17T10:33:30.504Z,2.95
2022-10-17T10:36:03.329Z,2.50
2022-10-17T10:38:32.240Z,2.83
2022-10-17T10:41:04.073Z,3.05
2022-10-17T10:43:35.084Z,3.05
2022-10-17T10:46:04.302Z,2.88
2022-10-17T10:48:35.793Z,2.80
2022-10-17T10:51:07.598Z,2.78
2022-10-17T10:53:42.404Z,3.05
2022-10-17T10:56:12.736Z,3.33
2022-10-17T10:58:48.321Z,3.10
2022-10-17T11:01:19.342Z,2.80
2022-10-17T11:03:54.850Z,2.63
2022-10-17T11:06:28.138Z,2.55
2022-10-17T11:09:00.486Z,2.67
2022-10-17T11:11:31.462Z,2.85
2022-10-17T11:14:00.729Z,2.92
2022-10-17T11:16:31.386Z,2.70
2022-10-17T11:19:01.895Z,2.60
2022-10-17T11:21:36.234Z,3.03
2022-10-17T11:24:09.241Z,2.90
2022-10-17T11:26:42.147Z,2.70
2022-10-17T11:29:12.939Z,3.00
2022-10-17T11:31:44.630Z,2.90
2022-10-17T11:34:19.768Z,2.90
2022-10-17T11:36:50.883Z,3.10
2022-10-17T11:39:21.090Z,2.90
2022-10-17T11:41:52.602Z,3.25
2022-10-17T11:44:24.417Z,2.88
2022-10-17T11:46:56.216Z,3.05
2022-10-17T11:52:03.298Z,3.10
2022-10-17T11:54:34.629Z,3.25
2022-10-17T11:57:13.893Z,3.13
2022-10-17T11:59:50.577Z,2.90
2022-10-17T12:02:22.428Z,3.53
2022-10-17T12:04:55.960Z,3.08
2022-10-17T12:07:30.025Z,3.38
2022-10-17T12:10:01.889Z,3.60
2022-10-17T12:12:31.419Z,3.28
2022-10-17T12:15:15.289Z,3.50
2022-10-17T12:17:45.181Z,3.10
2022-10-17T12:20:27.637Z,3.13
2022-10-17T12:22:58.281Z,3.30
2022-10-17T12:25:30.127Z,3.45
2022-10-17T12:28:13.606Z,3.38
2022-10-17T12:30:51.867Z,3.40
2022-10-17T12:33:22.611Z,3.55
2022-10-17T12:36:06.214Z,3.78
2022-10-17T12:38:50.377Z,3.88
2022-10-17T12:41:19.488Z,3.83
2022-10-17T12:46:47.938Z,3.83
2022-10-17T12:49:53.086Z,4.18
2022-10-17T12:52:25.441Z,4.40
2022-10-17T12:55:10.913Z,3.97
2022-10-17T12:57:43.809Z,4.53
2022-10-17T13:00:17.123Z,4.10
2022-10-17T13:02:46.158Z,4.53
2022-10-17T13:05:17.809Z,4.78
2022-10-17T13:07:47.080Z,4.70
2022-10-17T13:13:06.895Z,4.85
2022-10-17T13:15:35.555Z,4.95
2022-10-17T13:18:04.368Z,5.13
2022-10-17T13:20:33.613Z,5.30
2022-10-17T13:23:02.713Z,5.20
2022-10-17T13:25:34.629Z,5.43
2022-10-17T13:28:07.527Z,5.45
2022-10-17T13:30:37.843Z,4.78
2022-10-17T13:33:17.989Z,4.80
2022-10-17T13:35:59.866Z,5.53
2022-10-17T13:38:30.432Z,5.10
2022-10-17T13:41:11.032Z,5.15
2022-10-17T13:43:49.087Z,5.57
2022-10-17T13:46:36.913Z,5.32
2022-10-17T13:49:12.563Z,5.43
2022-10-17T13:51:44.340Z,5.20
2022-10-17T13:54:35.140Z,4.97
2022-10-17T13:57:05.821Z,5.40
2022-10-17T13:59:39.198Z,5.30
2022-10-17T14:02:12.636Z,4.97
2022-10-17T14:05:11.832Z,4.82
2022-10-17T14:07:46.120Z,4.93
2022-10-17T14:10:23.134Z,5.07
2022-10-17T14:12:53.626Z,4.63
2022-10-17T14:15:23.780Z,4.82
2022-10-17T14:17:56.903Z,5.05
2022-10-17T14:21:07.826Z,5.20
2022-10-17T14:23:30.743Z,5.28
2022-10-17T14:26:06.876Z,4.90
2022-10-17T14:28:36.948Z,5.13
2022-10-17T14:31:14.173Z,5.15
2022-10-17T14:33:49.774Z,5.43
2022-10-17T14:36:20.011Z,5.30
2022-10-17T14:38:49.411Z,4.80
2022-10-17T14:41:41.925Z,5.28
2022-10-17T14:44:17.816Z,5.32
2022-10-17T14:46:50.507Z,5.35
2022-10-17T14:49:24.653Z,5.20
2022-10-17T14:52:24.370Z,5.20
2022-10-17T14:54:53.176Z,5.00
2022-10-17T14:57:24.899Z,5.30
2022-10-17T14:59:55.723Z,5.43
2022-10-17T15:02:24.771Z,5.35
2022-10-17T15:04:53.256Z,5.25
2022-10-17T15:07:22.286Z,5.90
2022-10-17T15:09:51.916Z,5.55
2022-10-17T15:12:22.014Z,5.90
2022-10-17T15:14:51.762Z,6.47
2022-10-17T15:17:22.616Z,5.90
2022-10-17T15:19:51.681Z,6.32
2022-10-17T15:22:20.367Z,5.97
2022-10-17T15:24:49.034Z,6.25
2022-10-17T15:27:18.644Z,6.03
2022-10-17T15:29:47.384Z,6.68
2022-10-17T15:32:16.021Z,6.47
2022-10-17T15:34:46.149Z,6.13
2022-10-17T15:37:19.249Z,6.60
2022-10-17T15:39:53.338Z,6.75
2022-10-17T15:42:22.651Z,6.50
2022-10-17T15:44:51.140Z,6.75
2022-10-17T15:47:26.035Z,6.47
2022-10-17T15:49:55.982Z,7.07
2022-10-17T15:52:24.681Z,7.78
2022-10-17T15:54:53.405Z,7.22
2022-10-17T15:57:23.959Z,7.88
2022-10-17T15:59:53.194Z,8.00
2022-10-17T16:02:22.518Z,8.23
2022-10-17T16:05:05.677Z,7.90
2022-10-17T16:07:35.496Z,8.63
2022-10-17T16:10:03.944Z,8.30
2022-10-17T16:12:38.019Z,7.78
2022-10-17T16:15:06.974Z,8.20
2022-10-17T16:17:35.526Z,8.70
2022-10-17T16:20:05.194Z,8.73
2022-10-17T16:22:36.887Z,8.80
2022-10-17T16:25:21.215Z,9.20
2022-10-17T16:27:50.564Z,9.20
2022-10-17T16:30:19.656Z,8.70
2022-10-17T16:32:49.738Z,9.40
2022-10-17T16:35:20.314Z,8.85
2022-10-17T16:37:50.821Z,9.15
2022-10-17T16:40:19.729Z,9.32
2022-10-17T16:42:48.242Z,9.80
2022-10-17T16:45:18.702Z,9.60
2022-10-17T16:47:47.464Z,9.55
2022-10-17T16:50:16.195Z,8.70
2022-10-17T16:52:44.928Z,9.05
2022-10-17T16:55:14.968Z,8.77
2022-10-17T17:00:24.188Z,8.60
2022-10-17T17:02:52.862Z,7.82
2022-10-17T17:05:21.332Z,7.90
2022-10-17T17:07:49.773Z,7.75
2022-10-17T17:10:19.745Z,7.90
2022-10-17T17:12:48.145Z,7.18
2022-10-17T17:15:16.607Z,7.20
2022-10-17T17:17:52.408Z,7.55
2022-10-17T17:20:23.269Z,7.05
2022-10-17T17:22:52.401Z,6.70
2022-10-17T17:25:23.506Z,6.78
2022-10-17T17:27:51.945Z,6.40
2022-10-17T17:30:20.563Z,5.90
2022-10-17T17:32:49.464Z,5.93
2022-10-17T17:35:18.092Z,5.70
2022-10-17T17:37:46.560Z,5.85
2022-10-17T17:40:15.896Z,6.28
2022-10-17T17:45:36.551Z,5.43
2022-10-17T17:48:05.240Z,5.32
2022-10-17T17:50:34.011Z,5.20
2022-10-17T17:53:02.455Z,5.68
2022-10-17T17:55:30.931Z,5.38
2022-10-17T17:58:00.984Z,5.28
2022-10-17T18:00:29.567Z,5.10
2022-10-17T18:02:57.991Z,5.80
2022-10-17T18:05:26.613Z,5.63
2022-10-17T18:07:55.139Z,6.03
2022-10-17T18:10:23.624Z,5.97
2022-10-17T18:12:52.245Z,5.25
2022-10-17T18:15:22.086Z,5.50
2022-10-17T18:17:50.546Z,5.88
2022-10-17T18:20:19.022Z,6.13
2022-10-17T18:22:47.423Z,5.72
2022-10-17T18:25:15.893Z,5.70
2022-10-17T18:27:44.336Z,6.20
2022-10-17T18:30:14.121Z,6.35
2022-10-17T18:32:43.924Z,6.10
2022-10-17T18:35:12.378Z,6.50
2022-10-17T18:40:10.814Z,6.40
2022-10-17T18:42:39.275Z,6.55
2022-10-17T18:45:08.388Z,6.70
2022-10-17T18:47:36.854Z,6.70
2022-10-17T18:50:06.999Z,6.72
2022-10-17T18:52:35.419Z,7.05
2022-10-17T18:55:03.965Z,6.88
2022-10-17T18:57:32.754Z,7.22
2022-10-17T19:00:01.358Z,7.00
2022-10-17T19:02:33.171Z,7.40
2022-10-17T19:05:04.572Z,7.18
2022-10-17T19:07:34.407Z,6.68
2022-10-17T19:10:03.114Z,6.72
2022-10-17T19:12:31.506Z,7.20
2022-10-17T19:14:59.991Z,7.65
2022-10-17T19:17:28.673Z,7.32
2022-10-17T19:19:57.336Z,7.57
2022-10-17T19:22:25.788Z,7.65
2022-10-17T19:24:55.656Z,7.00
2022-10-17T19:27:24.077Z,7.55
2022-10-17T19:29:52.525Z,7.60
2022-10-17T19:32:22.850Z,7.70
2022-10-17T19:34:51.531Z,7.72
2022-10-17T19:37:19.950Z,7.68
2022-10-17T19:39:50.560Z,8.15
2022-10-17T19:42:20.392Z,8.38
2022-10-17T19:44:48.904Z,8.70
2022-10-17T19:47:17.371Z,8.25
2022-10-17T19:49:49.913Z,8.23
2022-10-17T19:52:19.582Z,8.70
2022-10-17T19:54:48.210Z,8.85
2022-10-17T19:57:16.622Z,9.23
2022-10-17T19:59:46.566Z,8.82
2022-10-17T20:02:15.228Z,9.80
2022-10-17T20:04:54.393Z,9.98
2022-10-17T20:07:32.079Z,9.30
2022-10-17T20:10:00.604Z,9.48
2022-10-17T20:12:29.424Z,9.20
2022-10-17T20:14:59.505Z,9.18
2022-10-17T20:17:28.288Z,9.35
2022-10-17T20:19:56.751Z,9.23
2022-10-17T20:22:25.539Z,10.35
2022-10-17T20:24:54.036Z,10.63
2022-10-17T20:27:27.457Z,9.57
2022-10-17T20:30:01.635Z,10.68
2022-10-17T20:32:32.072Z,11.38
2022-10-17T20:35:00.768Z,11.95
2022-10-17T20:37:29.881Z,10.95
2022-10-17T20:40:22.691Z,10.88
2022-10-17T20:42:47.142Z,10.38
2022-10-17T20:45:15.599Z,10.80
2022-10-17T20:47:49.156Z,9.82
2022-10-17T20:50:20.168Z,10.23
2022-10-17T20:52:50.369Z,10.90
2022-10-17T20:55:21.292Z,11.18
2022-10-17T20:57:49.790Z,10.70
2022-10-17T21:00:18.306Z,10.07
2022-10-17T21:02:48.817Z,10.70
2022-10-17T21:05:17.453Z,10.90
2022-10-17T21:07:45.876Z,11.43
2022-10-17T21:10:34.428Z,11.55
2022-10-17T21:13:02.790Z,11.38
2022-10-17T21:15:31.352Z,11.68
2022-10-17T21:18:01.167Z,11.68
2022-10-17T21:20:29.658Z,10.98
2022-10-17T21:23:00.343Z,10.95
2022-10-17T21:25:28.990Z,12.32
2022-10-17T21:27:57.405Z,11.90
2022-10-17T21:30:25.856Z,12.55
2022-10-17T21:32:55.809Z,11.73
2022-10-17T21:35:25.820Z,11.73
2022-10-17T21:37:54.231Z,11.32
2022-10-17T21:40:22.685Z,11.48
2022-10-17T21:42:51.115Z,11.25
2022-10-17T21:45:25.853Z,11.35
2022-10-17T21:48:12.303Z,11.60
2022-10-17T21:50:42.888Z,11.80
2022-10-17T21:53:11.318Z,11.93
2022-10-17T21:55:39.905Z,12.57
2022-10-17T21:58:08.368Z,12.48
2022-10-17T22:00:36.829Z,11.18
2022-10-17T22:03:07.214Z,10.35
2022-10-17T22:05:35.651Z,12.77
2022-10-17T22:08:05.511Z,11.95
2022-10-17T22:10:33.968Z,11.50
2022-10-17T22:13:02.411Z,12.60
2022-10-17T22:15:31.381Z,12.48
2022-10-17T22:17:59.903Z,12.77
2022-10-17T22:20:28.428Z,12.88
2022-10-17T22:22:56.945Z,13.27
2022-10-17T22:25:26.926Z,13.23
2022-10-17T22:27:55.376Z,12.60
2022-10-17T22:30:23.806Z,11.77
2022-10-17T22:32:52.239Z,13.43
2022-10-17T22:35:21.763Z,13.00
2022-10-17T22:37:50.185Z,12.23
2022-10-17T22:40:18.720Z,13.13
2022-10-17T22:42:48.505Z,12.10
2022-10-17T22:45:17.107Z,12.02
2022-10-17T22:47:45.503Z,11.73
2022-10-17T22:50:13.955Z,12.25
2022-10-17T22:52:42.362Z,12.43
2022-10-17T22:55:11.182Z,13.75
2022-10-17T22:57:39.758Z,13.73
2022-10-17T23:00:11.508Z,13.18
2022-10-17T23:02:40.068Z,14.43
2022-10-17T23:05:08.913Z,15.90
2022-10-17T23:07:37.388Z,15.77
2022-10-17T23:10:06.026Z,15.05
2022-10-17T23:12:34.459Z,15.82
2022-10-17T23:15:02.932Z,14.97
2022-10-17T23:17:32.743Z,15.93
2022-10-17T23:20:01.165Z,14.55
2022-10-17T23:22:29.872Z,15.77
2022-10-17T23:24:58.666Z,16.85
2022-10-17T23:27:27.180Z,16.03
2022-10-17T23:29:55.790Z,16.50
2022-10-17T23:32:24.240Z,15.52
2022-10-17T23:34:54.090Z,15.00
2022-10-17T23:37:22.552Z,15.80
2022-10-17T23:39:50.993Z,15.13
2022-10-17T23:42:19.443Z,15.77
2022-10-17T23:44:47.904Z,15.65
2022-10-17T23:47:16.391Z,15.48
2022-10-17T23:49:44.882Z,16.15
2022-10-17T23:52:14.719Z,15.80
2022-10-17T23:54:43.187Z,15.73
2022-10-17T23:57:11.599Z,13.50
2022-10-17T23:59:40.102Z,13.80
